AirNav   Bose ProFlight Series 2 Headset
 
 1222 users online  

NH05 Seacoast Helicopters West Heliport
Mont Vernon, New Hampshire, USA

GOING TO MONT VERNON?


FAA INFORMATION EFFECTIVE 02 JANUARY 2020

Location

FAA Identifier: NH05
Lat/Long: 42-53-58.0000N 071-38-48.0000W
42-53.966667N 071-38.800000W
42.8994444,-71.6466667
(estimated)
Elevation: 600 ft. / 183 m
From city: 3 miles W of MONT VERNON, NH
Time zone: UTC -5 (UTC -4 during Daylight Saving Time)
Zip code: 03057

Heliport Operations

Heliport use: Private use. Permission required prior to landing
Activation date: 02/2017
Control tower: no
ARTCC: BOSTON CENTER
FSS: BANGOR FLIGHT SERVICE STATION
Attendance: 
Wind indicator: no
Segmented circle: no

Heliport Communications

CTAF: 123.45
WX AWOS-3PT at ASH (9 nm SE): 125.1 (603-578-0473)
WX ASOS at MHT (9 nm E): 119.55 (603-621-1766)
WX ASOS at AFN (17 nm W): 135.875 (603-532-6195)
WX ASOS at CON (19 nm N): 132.325 (603-224-6558)

Nearby radio navigation aids

VOR radial/distance  VOR name  Freq  Var
MHTr294/12.3MANCHESTER VOR/DME114.4015W
CONr204/19.5CONCORD VOR/DME112.9015W
LWMr306/26.1LAWRENCE VOR/DME112.5015W
GDMr055/27.9GARDNER VOR/DME110.6014W
EENr091/29.1KEENE VORTAC109.4014W
PSMr269/37.4PEASE VOR/DME116.5016W

 
NDB name  Hdg/Dist  Freq  Var  ID
FITZY307/5.620915WMJ -- .---

Heliport Services

Runway Information

Helipad H1

Dimensions: 50 x 50 ft. / 15 x 15 m
Surface: turf
Latitude: 42-53.966667N
Longitude: 071-38.800000W
Elevation: 600.0 ft.
Traffic pattern: leftleft

Heliport Ownership and Management from official FAA records

Ownership: Privately-owned
Owner: BRUCE CUTRERA
66 KENDALL HILL ROAD
MONT VERNON, NH 03057-1902
Phone 603-759-5347
Manager: BRUCE CUTRERA
66 KENDALL HILL ROAD
MONT VERNON, NH 03057-1902
Phone 603-759-5347

Additional Remarks

FOR CD CTC BOSTON APCH AT 603-594-5551.

Instrument Procedures

There are no published instrument procedures at NH05.

Some nearby airports with instrument procedures:

KASH - Boire Field Airport (9 nm SE)
KMHT - Manchester Airport (9 nm E)
KAFN - Jaffrey Airport-Silver Ranch (17 nm W)
KCON - Concord Municipal Airport (19 nm N)
KFIT - Fitchburg Municipal Airport (21 nm S)
 
Loc | Ops | Rwys | IFR | FBO | Links
Com | Nav | Svcs | Stats | Notes
Aerial photo
No photo
 
Airport distance calculator
Flying to Seacoast Helicopters West Heliport? Find the distance to fly.

From to NH05

Sunrise and sunset
Times for 26-Jan-2020
 Local
(UTC-5)
 Zulu
(UTC)
Morning civil twilight06:3811:38
Sunrise07:0812:08
Sunset16:5021:50
Evening civil twilight17:2122:21

Current date and time
Zulu (UTC)  26-Jan-2020 23:44:03
Local (UTC-5)  26-Jan-2020 18:44:03
 
METAR
KMHT 
10nm E 
262253Z 25008KT 10SM BKN049 05/M04 A2964 RMK AO2 SLP055 T00501039
KASH 
10nm SE 
262256Z 00000KT 10SM BKN048 04/M03 A2967 RMK AO2 SLP054 T00441028
KAFN 
17nm W 
262252Z AUTO 23004KT 10SM OVC036 02/M03 A2964 RMK AO2 SLP052 T00221033
KCON 
19nm N 
262251Z AUTO 26006KT 10SM SCT050 03/M04 A2964 RMK AO2 SLP041 T00331039
TAF
KMHT 
10nm E 
261720Z 2618/2718 28010KT P6SM FEW030 FM270200 22003KT P6SM BKN100
KCON 
19nm N 
261720Z 2618/2718 28010KT P6SM SCT030 FM270200 23003KT P6SM BKN100
NOTAMs
Click for the latest NOTAMs
NOTAMs are issued by the DoD/FAA and will open in a separate window not controlled by AirNav.

 

 
 

Would you like to see your business listed on this page?

 If your business provides an interesting product or service to pilots, flight crews, aircraft, or users of the Seacoast Helicopters West Heliport, you should consider listing it here.  To start the listing process, click on the button below
 
Add a business
 

Other Pages about Seacoast Helicopters West Heliport

Update a link
 
Copyright © AirNav, LLC. All rights reserved. Privacy Policy  Contact